createdAt,value
2018-12-06T00:01:37.920Z,95830.34
2018-12-06T00:04:06.295Z,95817.69
2018-12-06T00:06:34.595Z,95817.23
2018-12-06T00:09:03.073Z,95804.08
2018-12-06T00:11:31.379Z,95812.97
2018-12-06T00:13:59.675Z,95799.55
2018-12-06T00:16:27.999Z,95815.72
2018-12-06T00:19:07.579Z,95804.48
2018-12-06T00:21:36.486Z,95815.55
2018-12-06T00:24:04.877Z,95805.40
2018-12-06T00:26:33.097Z,95793.83
2018-12-06T00:29:01.333Z,95807.09
2018-12-06T00:31:29.620Z,95805.48
2018-12-06T00:33:57.854Z,95812.24
2018-12-06T00:36:26.226Z,95813.70
2018-12-06T00:38:54.493Z,95795.11
2018-12-06T00:41:22.824Z,95788.18
2018-12-06T00:43:51.166Z,95806.68
2018-12-06T00:46:19.410Z,95852.72
2018-12-06T00:48:47.716Z,95847.14
2018-12-06T00:51:15.943Z,95835.50
2018-12-06T00:53:44.167Z,95833.58
2018-12-06T00:56:12.436Z,95830.20
2018-12-06T00:58:40.691Z,95837.33
2018-12-06T01:01:08.992Z,95844.27
2018-12-06T01:03:37.272Z,95845.96
2018-12-06T01:06:06.493Z,95854.36
2018-12-06T01:08:34.839Z,95877.06
2018-12-06T01:11:03.195Z,95883.91
2018-12-06T01:13:31.577Z,95911.50
2018-12-06T01:15:59.929Z,95900.21
2018-12-06T01:18:28.159Z,95910.59
2018-12-06T01:20:56.531Z,95902.42
2018-12-06T01:23:24.870Z,95900.08
2018-12-06T01:25:54.127Z,95898.98
2018-12-06T01:28:22.375Z,95888.58
2018-12-06T01:30:50.596Z,95889.77
2018-12-06T01:33:18.863Z,95885.84
2018-12-06T01:35:47.109Z,95884.30
2018-12-06T01:38:15.398Z,95876.02
2018-12-06T01:40:43.648Z,95873.97
2018-12-06T01:43:11.947Z,95879.23
2018-12-06T01:45:40.175Z,95878.91
2018-12-06T01:48:08.402Z,95876.40
2018-12-06T01:50:36.611Z,95877.22
2018-12-06T01:53:04.863Z,95886.53
2018-12-06T01:55:33.352Z,95884.57
2018-12-06T01:58:01.880Z,95888.61
2018-12-06T02:00:30.186Z,95891.98
2018-12-06T02:02:58.486Z,95897.23
2018-12-06T02:05:26.744Z,95913.38
2018-12-06T02:07:54.982Z,95904.55
2018-12-06T02:10:23.275Z,95909.04
2018-12-06T02:12:51.557Z,95904.69
2018-12-06T02:15:19.763Z,95899.08
2018-12-06T02:17:47.996Z,95901.68
2018-12-06T02:20:16.355Z,95884.11
2018-12-06T02:22:44.579Z,95892.07
2018-12-06T02:25:13.247Z,95897.88
2018-12-06T02:27:41.502Z,95890.47
2018-12-06T02:30:09.825Z,95884.52
2018-12-06T02:32:38.052Z,95886.13
2018-12-06T02:35:06.555Z,95882.45
2018-12-06T02:37:34.849Z,95880.45
2018-12-06T02:40:04.267Z,95879.80
2018-12-06T02:42:32.609Z,95882.66
2018-12-06T02:45:00.859Z,95884.46
2018-12-06T02:47:29.067Z,95879.38
2018-12-06T02:49:57.304Z,95881.16
2018-12-06T02:52:26.143Z,95874.33
2018-12-06T02:54:54.453Z,95880.50
2018-12-06T02:57:22.767Z,95872.54
2018-12-06T02:59:51.061Z,95875.13
2018-12-06T03:02:19.437Z,95870.05
2018-12-06T03:04:47.765Z,95865.68
2018-12-06T03:07:16.101Z,95846.01
2018-12-06T03:09:46.273Z,95838.48
2018-12-06T03:12:14.583Z,95837.24
2018-12-06T03:14:42.882Z,95831.12
2018-12-06T03:17:11.112Z,95823.55
2018-12-06T03:19:39.452Z,95818.28
2018-12-06T03:22:07.659Z,95819.34
2018-12-06T03:24:35.863Z,95814.31
2018-12-06T03:27:04.115Z,95818.01
2018-12-06T03:29:32.449Z,95820.36
2018-12-06T03:32:00.780Z,95825.81
2018-12-06T03:34:29.076Z,95816.96
2018-12-06T03:36:57.355Z,95818.91
2018-12-06T03:39:25.564Z,95819.78
2018-12-06T03:41:53.788Z,95814.47
2018-12-06T03:44:21.997Z,95823.38
2018-12-06T03:46:50.860Z,95818.73
2018-12-06T03:49:19.138Z,95827.08
2018-12-06T03:51:47.467Z,95822.94
2018-12-06T03:54:15.793Z,95821.84
2018-12-06T03:56:44.142Z,95824.78
2018-12-06T03:59:12.440Z,95832.47
2018-12-06T04:01:40.689Z,95817.48
2018-12-06T04:04:08.991Z,95821.03
2018-12-06T04:06:37.212Z,95813.42
2018-12-06T04:09:07.285Z,95808.70
2018-12-06T04:11:35.502Z,95805.18
2018-12-06T04:14:03.850Z,95799.80
2018-12-06T04:16:32.091Z,95799.33
2018-12-06T04:19:00.533Z,95796.67
2018-12-06T04:21:28.825Z,95786.21
2018-12-06T04:23:57.163Z,95787.77
2018-12-06T04:26:25.530Z,95796.01
2018-12-06T04:28:54.011Z,95788.63
2018-12-06T04:31:22.335Z,95789.17
2018-12-06T04:33:50.663Z,95781.79
2018-12-06T04:36:18.881Z,95783.70
2018-12-06T04:38:47.245Z,95786.20
2018-12-06T04:41:15.607Z,95780.38
2018-12-06T04:43:43.925Z,95777.84
2018-12-06T04:46:12.292Z,95767.21
2018-12-06T04:48:40.540Z,95765.30
2018-12-06T04:51:08.823Z,95759.16
2018-12-06T04:53:37.034Z,95765.03
2018-12-06T04:56:05.326Z,95765.73
2018-12-06T04:58:33.541Z,95765.41
2018-12-06T05:01:01.803Z,95767.48
2018-12-06T05:03:30.218Z,95773.75
2018-12-06T05:05:58.568Z,95771.75
2018-12-06T05:08:26.767Z,95766.88
2018-12-06T05:10:55.076Z,95768.78
2018-12-06T05:13:23.289Z,95774.17
2018-12-06T05:15:51.499Z,95779.55
2018-12-06T05:18:19.703Z,95783.07
2018-12-06T05:20:48.015Z,95780.38
2018-12-06T05:23:16.236Z,95782.12
2018-12-06T05:25:44.441Z,95791.69
2018-12-06T05:28:12.792Z,95793.61
2018-12-06T05:30:41.176Z,95803.33
2018-12-06T05:33:09.379Z,95804.14
2018-12-06T05:35:37.672Z,95808.52
2018-12-06T05:38:05.971Z,95814.00
2018-12-06T05:40:34.196Z,95825.52
2018-12-06T05:43:02.404Z,95826.21
2018-12-06T05:45:30.616Z,95811.31
2018-12-06T05:47:59.045Z,95809.34
2018-12-06T05:50:27.351Z,95799.80
2018-12-06T05:52:55.546Z,95816.22
2018-12-06T05:55:23.872Z,95813.33
2018-12-06T05:57:52.163Z,95806.33
2018-12-06T06:00:20.390Z,95797.70
2018-12-06T06:02:48.699Z,95800.30
2018-12-06T06:05:16.899Z,95814.02
2018-12-06T06:07:45.219Z,95811.20
2018-12-06T06:10:13.527Z,95815.42
2018-12-06T06:12:41.774Z,95818.66
2018-12-06T06:15:10.111Z,95819.76
2018-12-06T06:17:38.307Z,95820.95
2018-12-06T06:20:06.690Z,95820.15
2018-12-06T06:22:35.030Z,95827.70
2018-12-06T06:25:03.591Z,95835.69
2018-12-06T06:27:31.821Z,95836.81
2018-12-06T06:30:00.064Z,95841.14
2018-12-06T06:32:28.427Z,95838.59
2018-12-06T06:34:56.755Z,95842.00
2018-12-06T06:37:25.008Z,95842.65
2018-12-06T06:39:53.308Z,95842.89
2018-12-06T06:42:21.514Z,95851.17
2018-12-06T06:44:49.720Z,95858.33
2018-12-06T06:47:17.975Z,95857.27
2018-12-06T06:49:46.313Z,95864.32
2018-12-06T06:52:14.605Z,95871.24
2018-12-06T06:54:42.825Z,95879.95
2018-12-06T06:57:11.120Z,95879.78
2018-12-06T06:59:39.366Z,95885.68
2018-12-06T07:02:07.744Z,95880.94
2018-12-06T07:04:35.952Z,95874.88
2018-12-06T07:07:04.266Z,95872.83
2018-12-06T07:09:32.544Z,95882.95
2018-12-06T07:12:00.848Z,95879.27
2018-12-06T07:14:29.160Z,95881.42
2018-12-06T07:16:57.434Z,95880.53
2018-12-06T07:19:25.771Z,95885.24
2018-12-06T07:21:54.003Z,95887.02
2018-12-06T07:24:22.248Z,95874.30
2018-12-06T07:26:50.507Z,95871.81
2018-12-06T07:29:18.902Z,95867.14
2018-12-06T07:31:47.196Z,95876.79
2018-12-06T07:34:15.414Z,95877.37
2018-12-06T07:36:43.699Z,95874.61
2018-12-06T07:39:12.003Z,95874.81
2018-12-06T07:41:40.191Z,95870.66
2018-12-06T07:44:08.487Z,95872.05
2018-12-06T07:46:36.822Z,95871.38
2018-12-06T07:49:05.079Z,95862.87
2018-12-06T07:51:33.284Z,95869.66
2018-12-06T07:54:01.652Z,95862.36
2018-12-06T07:56:29.905Z,95859.26
2018-12-06T07:58:58.122Z,95856.83
2018-12-06T08:01:26.468Z,95862.04
2018-12-06T08:03:54.817Z,95855.52
2018-12-06T08:06:23.051Z,95862.20
2018-12-06T08:08:51.272Z,95870.80
2018-12-06T08:11:19.607Z,95866.66
2018-12-06T08:13:48.063Z,95874.84
2018-12-06T08:16:16.313Z,95878.65
2018-12-06T08:18:44.652Z,95879.58
2018-12-06T08:21:12.870Z,95884.78
2018-12-06T08:23:41.092Z,95884.03
2018-12-06T08:26:09.312Z,95888.91
2018-12-06T08:28:37.711Z,95891.56
2018-12-06T08:31:06.093Z,95891.33
2018-12-06T08:33:34.463Z,95896.98
2018-12-06T08:36:02.703Z,95903.77
2018-12-06T08:38:31.025Z,95900.29
2018-12-06T08:40:59.334Z,95906.30
2018-12-06T08:43:27.935Z,95907.77
2018-12-06T08:45:56.224Z,95912.09
2018-12-06T08:48:24.520Z,95917.21
2018-12-06T08:50:52.812Z,95925.20
2018-12-06T08:53:21.015Z,95930.59
2018-12-06T08:55:49.297Z,95932.20
2018-12-06T08:58:17.556Z,95938.44
2018-12-06T09:00:45.848Z,95933.11
2018-12-06T09:03:14.057Z,95942.44
2018-12-06T09:05:42.376Z,95944.89
2018-12-06T09:08:10.748Z,95949.97
2018-12-06T09:10:40.611Z,95949.45
2018-12-06T09:13:09.067Z,95952.94
2018-12-06T09:15:37.312Z,95954.37
2018-12-06T09:18:05.656Z,95957.91
2018-12-06T09:20:33.968Z,95963.24
2018-12-06T09:23:02.236Z,95972.63
2018-12-06T09:25:30.527Z,95960.73
2018-12-06T09:27:58.796Z,95973.20
2018-12-06T09:30:27.075Z,95970.75
2018-12-06T09:32:55.397Z,95972.03
2018-12-06T09:35:23.829Z,95973.12
2018-12-06T09:37:52.207Z,95974.58
2018-12-06T09:40:20.452Z,95978.58
2018-12-06T09:42:48.863Z,95985.81
2018-12-06T09:45:17.136Z,95989.36
2018-12-06T09:47:45.368Z,95995.42
2018-12-06T09:50:13.795Z,95983.36
2018-12-06T09:52:42.076Z,95987.48
2018-12-06T09:55:10.366Z,95985.88
2018-12-06T09:57:38.635Z,95986.16
2018-12-06T10:00:10.447Z,95981.39
2018-12-06T10:02:38.751Z,95983.55
2018-12-06T10:05:07.022Z,95978.73
2018-12-06T10:07:35.239Z,95974.80
2018-12-06T10:10:04.303Z,95974.30
2018-12-06T10:12:32.561Z,95981.61
2018-12-06T10:15:00.859Z,95979.94
2018-12-06T10:17:29.136Z,95973.09
2018-12-06T10:19:57.392Z,95975.20
2018-12-06T10:22:25.688Z,95980.69
2018-12-06T10:24:53.964Z,95973.66
2018-12-06T10:27:22.171Z,95973.73
2018-12-06T10:29:50.431Z,95977.84
2018-12-06T10:32:18.688Z,95977.92
2018-12-06T10:34:53.341Z,95977.16
2018-12-06T10:37:17.321Z,95980.08
2018-12-06T10:39:45.629Z,95974.47
2018-12-06T10:42:13.851Z,95990.47
2018-12-06T10:44:42.156Z,95990.57
2018-12-06T10:47:10.392Z,96001.80
2018-12-06T10:49:38.779Z,95988.95
2018-12-06T10:52:07.080Z,95998.31
2018-12-06T10:54:35.313Z,95987.43
2018-12-06T10:57:03.565Z,95995.00
2018-12-06T10:59:31.873Z,95995.95
2018-12-06T11:02:03.028Z,96001.53
2018-12-06T11:04:35.860Z,95997.53
2018-12-06T11:07:04.988Z,96000.85
2018-12-06T11:09:33.487Z,95999.49
2018-12-06T11:12:01.745Z,96000.48
2018-12-06T11:14:30.091Z,96006.45
2018-12-06T11:16:58.541Z,96007.53
2018-12-06T11:19:26.782Z,96007.36
2018-12-06T11:21:55.182Z,96005.57
2018-12-06T11:24:23.483Z,96010.64
2018-12-06T11:26:51.736Z,96008.48
2018-12-06T11:29:19.952Z,96011.67
2018-12-06T11:31:48.372Z,96015.58
2018-12-06T11:34:16.655Z,96011.73
2018-12-06T11:36:44.912Z,96016.30
2018-12-06T11:39:13.203Z,96021.45
2018-12-06T11:41:43.230Z,96026.35
2018-12-06T11:44:11.684Z,96028.99
2018-12-06T11:46:40.004Z,96021.89
2018-12-06T11:49:08.240Z,96022.84
2018-12-06T11:51:36.531Z,96027.79
2018-12-06T11:54:04.847Z,96017.52
2018-12-06T11:56:33.279Z,96016.36
2018-12-06T11:59:01.545Z,96017.06
2018-12-06T12:01:29.835Z,96013.01
2018-12-06T12:03:58.215Z,96011.41
2018-12-06T12:06:26.438Z,96005.23
2018-12-06T12:08:54.657Z,96004.35
2018-12-06T12:11:22.926Z,95995.20
2018-12-06T12:13:51.276Z,95989.34
2018-12-06T12:16:19.496Z,95985.66
2018-12-06T12:18:47.723Z,95982.42
2018-12-06T12:21:16.001Z,95980.16
2018-12-06T12:23:44.307Z,95984.23
2018-12-06T12:26:12.522Z,95980.41
2018-12-06T12:28:40.800Z,95975.69
2018-12-06T12:31:09.016Z,95977.22
2018-12-06T12:33:37.356Z,95970.50
2018-12-06T12:36:05.565Z,95971.83
2018-12-06T12:38:33.814Z,95977.02
2018-12-06T12:41:02.070Z,95986.63
2018-12-06T12:43:30.439Z,95979.11
2018-12-06T12:45:58.655Z,95983.33
2018-12-06T12:48:26.896Z,95987.31
2018-12-06T12:50:55.159Z,95976.09
2018-12-06T12:53:23.411Z,95973.71
2018-12-06T12:55:51.718Z,95977.54
2018-12-06T12:58:19.991Z,95975.16
2018-12-06T13:00:48.280Z,95967.55
2018-12-06T13:03:16.543Z,95970.17
2018-12-06T13:05:44.814Z,95973.17
2018-12-06T13:08:13.191Z,95974.77
2018-12-06T13:10:41.504Z,95966.15
2018-12-06T13:13:09.721Z,95973.66
2018-12-06T13:15:37.968Z,95981.11
2018-12-06T13:18:06.224Z,95983.68
2018-12-06T13:20:34.576Z,95972.93
2018-12-06T13:23:02.790Z,95971.86
2018-12-06T13:25:31.090Z,95969.92
2018-12-06T13:27:59.428Z,95968.37
2018-12-06T13:30:27.655Z,95967.29
2018-12-06T13:32:55.924Z,95967.23
2018-12-06T13:35:24.144Z,95968.36
2018-12-06T13:37:52.434Z,95966.23
2018-12-06T13:40:20.799Z,95960.92
2018-12-06T13:42:49.151Z,95967.35
2018-12-06T13:45:17.536Z,95972.82
2018-12-06T13:47:45.829Z,95976.13
2018-12-06T13:50:14.163Z,95977.83
2018-12-06T13:52:42.576Z,95979.68
2018-12-06T13:55:10.847Z,95983.65
2018-12-06T13:57:39.073Z,95992.70
2018-12-06T14:00:07.527Z,96005.44
2018-12-06T14:02:35.782Z,96011.14
2018-12-06T14:05:04.208Z,96004.33
2018-12-06T14:07:32.641Z,96009.97
2018-12-06T14:10:00.956Z,96009.93
2018-12-06T14:12:29.277Z,96009.84
2018-12-06T14:14:57.622Z,96029.53
2018-12-06T14:17:25.835Z,96021.25
2018-12-06T14:19:54.058Z,96019.56
2018-12-06T14:22:22.297Z,96009.53
2018-12-06T14:24:50.528Z,96021.09
2018-12-06T14:27:18.754Z,96039.46
2018-12-06T14:29:47.059Z,96032.78
2018-12-06T14:32:15.381Z,96030.83
2018-12-06T14:34:43.696Z,96035.09
2018-12-06T14:37:11.953Z,96041.88
2018-12-06T14:39:40.296Z,96041.05
2018-12-06T14:42:08.543Z,96040.75
2018-12-06T14:44:36.839Z,96045.06
2018-12-06T14:47:05.172Z,96049.91
2018-12-06T14:49:33.392Z,96050.92
2018-12-06T14:52:01.737Z,96059.76
2018-12-06T14:54:30.011Z,96048.70
2018-12-06T14:56:58.331Z,96049.69
2018-12-06T14:59:26.656Z,96049.83
2018-12-06T15:01:54.957Z,96050.25
2018-12-06T15:04:23.319Z,96054.90
2018-12-06T15:06:51.616Z,96049.75
2018-12-06T15:09:19.851Z,96049.50
2018-12-06T15:12:19.281Z,96051.03
2018-12-06T15:14:47.498Z,96053.98
2018-12-06T15:17:15.752Z,96056.33
2018-12-06T15:19:44.001Z,96082.00
2018-12-06T15:22:13.490Z,96068.52
2018-12-06T15:24:42.086Z,96065.03
2018-12-06T15:27:10.365Z,96062.81
2018-12-06T15:29:38.633Z,96069.98
2018-12-06T15:32:06.913Z,96074.45
2018-12-06T15:34:35.208Z,96071.98
2018-12-06T15:37:03.591Z,96069.88
2018-12-06T15:39:31.811Z,96077.45
2018-12-06T15:42:00.031Z,96080.74
2018-12-06T15:44:28.349Z,96079.90
2018-12-06T15:46:56.660Z,96080.56
2018-12-06T15:49:24.956Z,96074.72
2018-12-06T15:51:53.176Z,96081.84
2018-12-06T15:54:21.388Z,96082.47
2018-12-06T15:56:49.672Z,96071.30
2018-12-06T15:59:17.887Z,96082.36
2018-12-06T16:01:46.246Z,96081.46
2018-12-06T16:04:14.462Z,96083.61
2018-12-06T16:06:42.702Z,96085.66
2018-12-06T16:09:10.935Z,96088.98
2018-12-06T16:11:39.198Z,96096.09
2018-12-06T16:14:07.616Z,96088.55
2018-12-06T16:16:35.850Z,96083.61
2018-12-06T16:19:04.247Z,96085.66
2018-12-06T16:21:33.122Z,96083.39
2018-12-06T16:24:01.476Z,96083.45
2018-12-06T16:26:30.330Z,96091.33
2018-12-06T16:28:58.608Z,96087.89
2018-12-06T16:31:26.839Z,96076.86
2018-12-06T16:33:55.235Z,96065.09
2018-12-06T16:36:23.453Z,96064.05
2018-12-06T16:38:51.825Z,96066.73
2018-12-06T16:41:20.696Z,96070.92
2018-12-06T16:43:49.388Z,96052.37
2018-12-06T16:46:17.924Z,96064.89
2018-12-06T16:48:46.182Z,96070.94
2018-12-06T16:51:14.600Z,96063.97
2018-12-06T16:53:42.831Z,96074.88
2018-12-06T16:56:11.263Z,96078.62
2018-12-06T16:58:39.513Z,96090.05
2018-12-06T17:01:07.823Z,96078.38
2018-12-06T17:03:36.035Z,96079.38
2018-12-06T17:06:04.376Z,96082.83
2018-12-06T17:08:32.590Z,96087.52
2018-12-06T17:11:01.228Z,96091.91
2018-12-06T17:13:29.536Z,96100.40
2018-12-06T17:15:57.845Z,96103.34
2018-12-06T17:18:26.157Z,96105.73
2018-12-06T17:20:54.542Z,96099.91
2018-12-06T17:23:22.754Z,96106.41
2018-12-06T17:25:51.007Z,96103.91
2018-12-06T17:28:19.267Z,96103.91
2018-12-06T17:30:47.539Z,96107.41
2018-12-06T17:33:15.855Z,96110.02
2018-12-06T17:35:44.167Z,96099.70
2018-12-06T17:38:12.405Z,96099.97
2018-12-06T17:40:40.720Z,96110.19
2018-12-06T17:43:09.254Z,96102.12
2018-12-06T17:45:37.671Z,96109.70
2018-12-06T17:48:05.963Z,96101.25
2018-12-06T17:50:34.466Z,96096.30
2018-12-06T17:53:02.697Z,96109.70
2018-12-06T17:55:31.119Z,96123.59
2018-12-06T17:57:59.422Z,96125.84
2018-12-06T18:00:27.856Z,96129.27
2018-12-06T18:02:56.150Z,96122.86
2018-12-06T18:05:24.408Z,96131.17
2018-12-06T18:07:52.624Z,96134.08
2018-12-06T18:10:21.148Z,96132.75
2018-12-06T18:12:49.378Z,96136.63
2018-12-06T18:15:17.972Z,96135.88
2018-12-06T18:17:46.289Z,96144.45
2018-12-06T18:20:14.600Z,96142.09
2018-12-06T18:22:42.873Z,96140.78
2018-12-06T18:25:11.200Z,96138.99
2018-12-06T18:27:39.575Z,96143.39
2018-12-06T18:30:09.866Z,96140.39
2018-12-06T18:32:38.109Z,96155.25
2018-12-06T18:35:06.560Z,96155.52
2018-12-06T18:37:35.022Z,96152.01
2018-12-06T18:40:04.285Z,96157.04
2018-12-06T18:42:32.518Z,96145.80
2018-12-06T18:45:00.798Z,96147.52
2018-12-06T18:47:29.111Z,96139.30
2018-12-06T18:49:57.448Z,96142.51
2018-12-06T18:52:25.777Z,96134.30
2018-12-06T18:54:54.094Z,96129.90
2018-12-06T18:57:22.339Z,96121.13
2018-12-06T18:59:50.722Z,96124.95
2018-12-06T19:02:19.090Z,96118.67
2018-12-06T19:04:48.324Z,96121.83
2018-12-06T19:07:16.571Z,96122.08
2018-12-06T19:09:44.831Z,96122.59
2018-12-06T19:12:13.066Z,96126.47
2018-12-06T19:14:41.448Z,96125.45
2018-12-06T19:17:09.792Z,96131.75
2018-12-06T19:19:38.034Z,96132.56
2018-12-06T19:22:06.372Z,96138.78
2018-12-06T19:24:34.822Z,96138.84
2018-12-06T19:27:03.169Z,96139.13
2018-12-06T19:29:31.412Z,96137.78
2018-12-06T19:31:59.636Z,96133.39
2018-12-06T19:34:27.930Z,96132.11
2018-12-06T19:36:56.188Z,96137.15
2018-12-06T19:39:24.459Z,96134.54
2018-12-06T19:41:52.682Z,96137.66
2018-12-06T19:44:21.011Z,96127.53
2018-12-06T19:46:49.323Z,96133.56
2018-12-06T19:49:17.763Z,96126.41
2018-12-06T19:51:46.107Z,96117.83
2018-12-06T19:54:14.353Z,96123.35
2018-12-06T19:56:42.599Z,96129.05
2018-12-06T19:59:10.892Z,96131.88
2018-12-06T20:01:39.114Z,96131.23
2018-12-06T20:04:07.356Z,96132.48
2018-12-06T20:06:35.581Z,96134.14
2018-12-06T20:09:05.611Z,96126.02
2018-12-06T20:11:33.848Z,96132.48
2018-12-06T20:14:02.191Z,96126.08
2018-12-06T20:16:30.448Z,96124.41
2018-12-06T20:18:58.773Z,96123.17
2018-12-06T20:21:27.099Z,96115.47
2018-12-06T20:23:55.478Z,96123.17
2018-12-06T20:26:23.844Z,96121.05
2018-12-06T20:28:52.182Z,96112.31
2018-12-06T20:31:20.636Z,96116.10
2018-12-06T20:33:48.875Z,96106.58
2018-12-06T20:36:17.314Z,96109.30
2018-12-06T20:38:45.635Z,96110.16
2018-12-06T20:41:13.924Z,96102.39
2018-12-06T20:43:42.127Z,96097.87
2018-12-06T20:46:11.080Z,96104.55
2018-12-06T20:48:39.320Z,96100.36
2018-12-06T20:51:07.649Z,96097.38
2018-12-06T20:53:35.931Z,96086.44
2018-12-06T20:56:04.244Z,96097.44
2018-12-06T20:58:32.560Z,96089.19
2018-12-06T21:01:00.860Z,96105.20
2018-12-06T21:03:29.405Z,96101.39
2018-12-06T21:05:57.629Z,96097.63
2018-12-06T21:08:25.959Z,96091.20
2018-12-06T21:10:54.205Z,96087.66
2018-12-06T21:13:22.428Z,96076.41
2018-12-06T21:15:50.656Z,96088.17
2018-12-06T21:18:19.027Z,96082.63
2018-12-06T21:20:47.488Z,96086.38
2018-12-06T21:23:15.775Z,96089.38
2018-12-06T21:25:44.142Z,96089.38
2018-12-06T21:28:12.451Z,96082.95
2018-12-06T21:30:40.753Z,96088.47
2018-12-06T21:33:09.109Z,96083.19
2018-12-06T21:35:37.885Z,96081.38
2018-12-06T21:38:06.229Z,96073.17
2018-12-06T21:40:34.438Z,96075.33
2018-12-06T21:43:02.730Z,96069.41
2018-12-06T21:45:31.086Z,96077.42
2018-12-06T21:47:59.388Z,96075.08
2018-12-06T21:50:27.731Z,96060.13
2018-12-06T21:52:55.987Z,96067.44
2018-12-06T21:55:24.261Z,96067.19
2018-12-06T21:57:52.532Z,96065.91
2018-12-06T22:00:20.912Z,96072.85
2018-12-06T22:02:49.263Z,96068.69
2018-12-06T22:05:17.539Z,96066.59
2018-12-06T22:07:45.791Z,96065.25
2018-12-06T22:10:14.057Z,96067.11
2018-12-06T22:12:42.336Z,96068.20
2018-12-06T22:15:10.603Z,96070.67
2018-12-06T22:17:38.877Z,96068.06
2018-12-06T22:20:07.150Z,96069.91
2018-12-06T22:22:35.465Z,96074.22
2018-12-06T22:25:04.308Z,96063.02
2018-12-06T22:27:32.581Z,96067.19
2018-12-06T22:30:00.872Z,96061.84
2018-12-06T22:32:29.235Z,96068.36
2018-12-06T22:34:57.516Z,96071.59
2018-12-06T22:37:25.799Z,96069.39
2018-12-06T22:39:54.093Z,96076.39
2018-12-06T22:42:22.443Z,96065.71
2018-12-06T22:44:54.583Z,96067.29
2018-12-06T22:47:23.036Z,96064.16
2018-12-06T22:49:51.254Z,96061.13
2018-12-06T22:52:19.530Z,96065.77
2018-12-06T22:54:49.624Z,96064.43
2018-12-06T22:57:18.089Z,96065.30
2018-12-06T22:59:46.308Z,96060.84
2018-12-06T23:02:14.707Z,96056.80
2018-12-06T23:04:42.976Z,96058.89
2018-12-06T23:07:11.263Z,96058.53
2018-12-06T23:09:39.527Z,96058.13
2018-12-06T23:12:07.920Z,96054.95
2018-12-06T23:14:36.192Z,96054.99
2018-12-06T23:17:04.489Z,96060.44
2018-12-06T23:19:32.873Z,96063.00
2018-12-06T23:22:01.121Z,96064.04
2018-12-06T23:24:29.397Z,96057.66
2018-12-06T23:26:57.634Z,96060.33
2018-12-06T23:29:25.856Z,96053.03
2018-12-06T23:31:54.248Z,96057.80
2018-12-06T23:34:22.604Z,96059.95
2018-12-06T23:36:51.043Z,96049.03
2018-12-06T23:39:19.273Z,96048.52
2018-12-06T23:41:47.629Z,96048.35
2018-12-06T23:44:16.055Z,96052.36
2018-12-06T23:46:44.329Z,96037.67
2018-12-06T23:49:12.551Z,96033.45
2018-12-06T23:51:40.841Z,96035.05
2018-12-06T23:54:09.231Z,96030.83
2018-12-06T23:56:37.584Z,96023.61
2018-12-06T23:59:05.865Z,96019.84
